createdAt,value
2023-04-14T00:01:38.680Z,94074.66
2023-04-14T00:04:05.596Z,94084.94
2023-04-14T00:06:32.936Z,94083.94
2023-04-14T00:08:59.889Z,94073.25
2023-04-14T00:11:27.336Z,94077.50
2023-04-14T00:13:55.980Z,94078.72
2023-04-14T00:16:22.699Z,94075.00
2023-04-14T00:18:49.291Z,94067.31
2023-04-14T00:21:16.298Z,94061.13
2023-04-14T00:23:42.893Z,94069.78
2023-04-14T00:26:09.480Z,94066.53
2023-04-14T00:28:36.161Z,94056.06
2023-04-14T00:31:02.889Z,94063.50
2023-04-14T00:33:29.531Z,94056.97
2023-04-14T00:35:57.016Z,94062.69
2023-04-14T00:38:23.963Z,94061.44
2023-04-14T00:40:50.727Z,94057.22
2023-04-14T00:43:20.430Z,94054.00
2023-04-14T00:45:49.340Z,94055.41
2023-04-14T00:48:17.457Z,94059.16
2023-04-14T00:50:44.329Z,94056.72
2023-04-14T00:53:13.105Z,94055.47
2023-04-14T00:55:41.292Z,94057.72
2023-04-14T00:58:08.307Z,94047.09
2023-04-14T01:00:36.264Z,94044.06
2023-04-14T01:03:03.563Z,94043.38
2023-04-14T01:05:30.562Z,94059.00
2023-04-14T01:07:57.740Z,94041.38
2023-04-14T01:10:30.527Z,94044.41
2023-04-14T01:13:06.390Z,94045.09
2023-04-14T01:15:39.089Z,94043.31
2023-04-14T01:18:35.935Z,94054.78
2023-04-14T01:21:14.256Z,94038.81
2023-04-14T01:24:07.668Z,94053.25
2023-04-14T01:26:34.357Z,94048.28
2023-04-14T01:29:19.886Z,94044.28
2023-04-14T01:31:55.577Z,94042.78
2023-04-14T01:34:43.357Z,94053.00
2023-04-14T01:37:16.840Z,94041.84
2023-04-14T01:39:48.462Z,94040.59
2023-04-14T01:42:22.106Z,94047.28
2023-04-14T01:44:54.808Z,94033.38
2023-04-14T01:47:23.019Z,94024.69
2023-04-14T01:49:53.532Z,94042.84
2023-04-14T01:52:20.960Z,94037.63
2023-04-14T01:54:51.166Z,94035.09
2023-04-14T01:57:20.593Z,94029.44
2023-04-14T01:59:50.313Z,94018.44
2023-04-14T02:02:18.682Z,94038.28
2023-04-14T02:04:46.629Z,94039.28
2023-04-14T02:07:13.866Z,94043.94
2023-04-14T02:09:43.282Z,94038.78
2023-04-14T02:12:12.655Z,94047.69
2023-04-14T02:14:41.889Z,94033.56
2023-04-14T02:17:11.688Z,94044.78
2023-04-14T02:19:38.960Z,94041.56
2023-04-14T02:22:05.688Z,94031.13
2023-04-14T02:24:32.568Z,94032.63
2023-04-14T02:27:07.258Z,94035.63
2023-04-14T02:29:36.197Z,94042.31
2023-04-14T02:32:11.493Z,94043.06
2023-04-14T02:35:03.665Z,94031.66
2023-04-14T02:37:40.773Z,94035.38
2023-04-14T02:40:24.792Z,94025.19
2023-04-14T02:43:00.095Z,94019.25
2023-04-14T02:45:31.329Z,94026.69
2023-04-14T02:48:02.955Z,94017.97
2023-04-14T02:50:31.661Z,94008.81
2023-04-14T02:53:00.491Z,94011.81
2023-04-14T02:55:28.448Z,94012.28
2023-04-14T02:57:55.727Z,94013.25
2023-04-14T03:00:23.747Z,94000.81
2023-04-14T03:02:52.353Z,94009.50
2023-04-14T03:05:20.711Z,94003.00
2023-04-14T03:07:48.268Z,93996.25
2023-04-14T03:10:15.194Z,94002.13
2023-04-14T03:12:43.131Z,94005.34
2023-04-14T03:15:10.678Z,94001.56
2023-04-14T03:17:38.181Z,94006.78
2023-04-14T03:20:05.668Z,93987.66
2023-04-14T03:22:38.377Z,94007.38
2023-04-14T03:25:05.368Z,94005.50
2023-04-14T03:27:33.165Z,94009.00
2023-04-14T03:30:07.112Z,93980.31
2023-04-14T03:32:41.826Z,93969.34
2023-04-14T03:35:12.577Z,93975.09
2023-04-14T03:37:40.869Z,93967.59
2023-04-14T03:40:13.765Z,93948.09
2023-04-14T03:42:44.854Z,93933.28
2023-04-14T03:45:12.158Z,93938.06
2023-04-14T03:47:38.978Z,93941.53
2023-04-14T03:50:09.493Z,93959.94
2023-04-14T03:52:39.332Z,93942.91
2023-04-14T03:55:08.998Z,93944.44
2023-04-14T03:57:37.609Z,93944.09
2023-04-14T04:00:08.513Z,93933.66
2023-04-14T04:02:36.583Z,93942.63
2023-04-14T04:05:05.171Z,93954.59
2023-04-14T04:07:32.830Z,93949.31
2023-04-14T04:10:00.155Z,93947.84
2023-04-14T04:12:28.171Z,93947.84
2023-04-14T04:14:54.791Z,93955.09
2023-04-14T04:17:24.010Z,93941.63
2023-04-14T04:19:51.752Z,93946.56
2023-04-14T04:22:21.012Z,93935.69
2023-04-14T04:24:48.788Z,93951.56
2023-04-14T04:27:26.974Z,93952.91
2023-04-14T04:29:55.090Z,93964.06
2023-04-14T04:32:21.820Z,93958.13
2023-04-14T04:34:49.603Z,93958.88
2023-04-14T04:37:17.166Z,93980.78
2023-04-14T04:39:43.931Z,93979.16
2023-04-14T04:42:10.736Z,93990.97
2023-04-14T04:44:37.403Z,94000.72
2023-04-14T04:47:04.434Z,93991.88
2023-04-14T04:49:31.064Z,93983.63
2023-04-14T04:51:57.736Z,93970.81
2023-04-14T04:54:24.309Z,93963.97
2023-04-14T04:56:51.066Z,93973.47
2023-04-14T04:59:17.700Z,93955.84
2023-04-14T05:01:44.503Z,93941.03
2023-04-14T05:04:11.931Z,93934.13
2023-04-14T05:06:38.724Z,93941.41
2023-04-14T05:09:05.565Z,93925.75
2023-04-14T05:11:33.264Z,93941.56
2023-04-14T05:14:00.683Z,93940.53
2023-04-14T05:16:28.810Z,93949.84
2023-04-14T05:18:56.259Z,93939.25
2023-04-14T05:21:23.129Z,93938.09
2023-04-14T05:23:49.868Z,93921.03
2023-04-14T05:28:46.507Z,93898.94
2023-04-14T05:31:13.182Z,93917.50
2023-04-14T05:33:40.179Z,93909.66
2023-04-14T05:36:07.402Z,93899.09
2023-04-14T05:38:37.649Z,93891.19
2023-04-14T05:41:04.386Z,93906.84
2023-04-14T05:43:31.215Z,93903.38
2023-04-14T05:45:58.590Z,93885.50
2023-04-14T05:48:27.630Z,93881.28
2023-04-14T05:50:54.331Z,93870.38
2023-04-14T05:53:21.054Z,93889.47
2023-04-14T05:55:48.849Z,93892.75
2023-04-14T05:58:15.495Z,93876.63
2023-04-14T06:00:42.134Z,93889.81
2023-04-14T06:03:09.110Z,93864.19
2023-04-14T06:05:35.921Z,93879.84
2023-04-14T06:08:02.514Z,93858.97
2023-04-14T06:10:29.292Z,93851.78
2023-04-14T06:12:56.147Z,93865.44
2023-04-14T06:15:27.018Z,93842.31
2023-04-14T06:17:53.766Z,93841.59
2023-04-14T06:20:21.833Z,93846.03
2023-04-14T06:22:48.559Z,93851.19
2023-04-14T06:25:15.305Z,93823.78
2023-04-14T06:27:41.961Z,93827.03
2023-04-14T06:30:09.119Z,93840.13
2023-04-14T06:32:35.758Z,93820.41
2023-04-14T06:35:05.103Z,93817.31
2023-04-14T06:37:32.501Z,93791.00
2023-04-14T06:39:59.214Z,93785.81
2023-04-14T06:42:25.884Z,93818.34
2023-04-14T06:44:52.804Z,93791.28
2023-04-14T06:47:20.975Z,93795.25
2023-04-14T06:49:47.975Z,93802.19
2023-04-14T06:52:14.625Z,93761.47
2023-04-14T06:54:42.245Z,93738.47
2023-04-14T06:57:09.260Z,93743.66
2023-04-14T06:59:36.768Z,93744.59
2023-04-14T07:02:03.658Z,93775.31
2023-04-14T07:04:30.699Z,93771.09
2023-04-14T07:07:03.440Z,93750.44
2023-04-14T07:09:30.405Z,93759.53
2023-04-14T07:11:57.914Z,93752.50
2023-04-14T07:14:24.954Z,93756.25
2023-04-14T07:16:52.542Z,93772.72
2023-04-14T07:19:19.775Z,93750.56
2023-04-14T07:21:47.008Z,93750.56
2023-04-14T07:24:15.495Z,93760.59
2023-04-14T07:26:44.246Z,93749.03
2023-04-14T07:29:10.902Z,93762.25
2023-04-14T07:31:38.951Z,93750.78
2023-04-14T07:34:06.323Z,93739.84
2023-04-14T07:36:33.406Z,93763.19
2023-04-14T07:39:00.288Z,93734.41
2023-04-14T07:41:28.062Z,93723.84
2023-04-14T07:43:55.825Z,93759.38
2023-04-14T07:46:22.513Z,93720.88
2023-04-14T07:48:49.256Z,93721.81
2023-04-14T07:51:16.199Z,93720.16
2023-04-14T07:53:45.150Z,93747.16
2023-04-14T07:56:13.308Z,93726.84
2023-04-14T07:58:40.223Z,93704.91
2023-04-14T08:01:07.614Z,93720.56
2023-04-14T08:03:36.536Z,93704.56
2023-04-14T08:06:05.790Z,93716.47
2023-04-14T08:08:33.156Z,93686.84
2023-04-14T08:11:00.036Z,93691.50
2023-04-14T08:13:26.902Z,93690.41
2023-04-14T08:15:53.612Z,93698.81
2023-04-14T08:18:20.631Z,93709.78
2023-04-14T08:20:47.306Z,93697.63
2023-04-14T08:23:14.089Z,93702.97
2023-04-14T08:25:41.066Z,93708.91
2023-04-14T08:28:07.794Z,93677.78
2023-04-14T08:30:34.671Z,93714.34
2023-04-14T08:33:01.422Z,93723.25
2023-04-14T08:35:39.149Z,93707.72
2023-04-14T08:38:08.467Z,93720.28
2023-04-14T08:40:43.264Z,93714.75
2023-04-14T08:43:13.195Z,93728.59
2023-04-14T08:45:41.975Z,93746.69
2023-04-14T08:48:09.648Z,93734.06
2023-04-14T08:51:06.692Z,93756.72
2023-04-14T08:53:33.684Z,93755.53
2023-04-14T08:56:03.694Z,93778.31
2023-04-14T08:58:32.367Z,93758.41
2023-04-14T09:00:59.661Z,93749.41
2023-04-14T09:03:27.139Z,93722.47
2023-04-14T09:05:54.494Z,93754.56
2023-04-14T09:08:21.395Z,93732.03
2023-04-14T09:10:48.782Z,93710.78
2023-04-14T09:13:17.086Z,93718.41
2023-04-14T09:15:44.000Z,93742.75
2023-04-14T09:18:12.066Z,93737.78
2023-04-14T09:20:40.722Z,93716.75
2023-04-14T09:23:10.293Z,93738.88
2023-04-14T09:25:41.692Z,93742.38
2023-04-14T09:28:08.718Z,93729.28
2023-04-14T09:30:35.660Z,93746.59
2023-04-14T09:33:06.967Z,93744.78
2023-04-14T09:35:46.141Z,93755.13
2023-04-14T09:38:13.269Z,93734.28
2023-04-14T09:40:42.614Z,93764.13
2023-04-14T09:43:13.018Z,93761.91
2023-04-14T09:45:45.992Z,93758.81
2023-04-14T09:48:15.709Z,93752.91
2023-04-14T09:51:02.060Z,93744.97
2023-04-14T09:53:36.512Z,93738.88
2023-04-14T09:56:09.751Z,93773.16
2023-04-14T09:58:44.808Z,93766.16
2023-04-14T10:01:16.526Z,93779.09
2023-04-14T10:03:45.010Z,93797.13
2023-04-14T10:06:22.800Z,93746.81
2023-04-14T10:08:51.690Z,93820.25
2023-04-14T10:11:19.514Z,93816.97
2023-04-14T10:13:48.034Z,93825.53
2023-04-14T10:16:15.763Z,93851.44
2023-04-14T10:18:42.986Z,93796.72
2023-04-14T10:21:10.433Z,93851.38
2023-04-14T10:23:44.203Z,93819.94
2023-04-14T10:26:12.694Z,93862.81
2023-04-14T10:28:42.251Z,93890.22
2023-04-14T10:31:14.167Z,93925.66
2023-04-14T10:33:42.127Z,93934.63
2023-04-14T10:36:09.650Z,93952.59
2023-04-14T10:38:44.055Z,93972.41
2023-04-14T10:41:11.751Z,94001.53
2023-04-14T10:43:39.733Z,94044.66
2023-04-14T10:46:09.704Z,94057.25
2023-04-14T10:48:40.388Z,94092.78
2023-04-14T10:51:10.593Z,94085.63
2023-04-14T10:53:47.680Z,94119.22
2023-04-14T10:56:14.401Z,94134.88
2023-04-14T10:58:41.084Z,94128.16
2023-04-14T11:01:41.588Z,94135.84
2023-04-14T11:04:18.380Z,94152.00
2023-04-14T11:06:54.506Z,94159.13
2023-04-14T11:09:33.929Z,94178.03
2023-04-14T11:12:26.051Z,94176.28
2023-04-14T11:14:57.142Z,94182.22
2023-04-14T11:17:24.008Z,94185.72
2023-04-14T11:19:55.264Z,94197.09
2023-04-14T11:22:40.113Z,94206.53
2023-04-14T11:25:08.205Z,94195.59
2023-04-14T11:27:35.832Z,94204.41
2023-04-14T11:30:02.653Z,94219.84
2023-04-14T11:32:29.549Z,94221.53
2023-04-14T11:35:06.876Z,94230.06
2023-04-14T11:37:36.049Z,94245.56
2023-04-14T11:40:05.603Z,94247.34
2023-04-14T11:42:33.877Z,94269.81
2023-04-14T11:45:02.929Z,94256.09
2023-04-14T11:47:29.796Z,94244.66
2023-04-14T11:49:56.410Z,94263.66
2023-04-14T11:52:23.058Z,94287.34
2023-04-14T11:54:50.004Z,94274.25
2023-04-14T11:57:17.596Z,94281.97
2023-04-14T11:59:46.075Z,94287.00
2023-04-14T12:02:20.945Z,94281.03
2023-04-14T12:04:50.568Z,94284.63
2023-04-14T12:07:19.512Z,94273.19
2023-04-14T12:09:49.035Z,94284.50
2023-04-14T12:12:17.549Z,94295.06
2023-04-14T12:14:46.202Z,94292.50
2023-04-14T12:17:15.316Z,94292.72
2023-04-14T12:19:42.604Z,94296.59
2023-04-14T12:22:09.760Z,94272.16
2023-04-14T12:24:42.519Z,94293.66
2023-04-14T12:27:10.204Z,94271.34
2023-04-14T12:29:37.394Z,94257.97
2023-04-14T12:32:12.098Z,94262.31
2023-04-14T12:34:38.896Z,94256.03
2023-04-14T12:37:09.852Z,94240.91
2023-04-14T12:39:54.334Z,94221.88
2023-04-14T12:42:21.181Z,94212.97
2023-04-14T12:45:00.469Z,94206.25
2023-04-14T12:47:31.630Z,94227.47
2023-04-14T12:50:00.393Z,94209.84
2023-04-14T12:52:38.254Z,94214.44
2023-04-14T12:55:06.786Z,94208.22
2023-04-14T12:57:34.697Z,94202.28
2023-04-14T13:00:02.174Z,94199.78
2023-04-14T13:02:30.205Z,94188.25
2023-04-14T13:04:57.155Z,94185.75
2023-04-14T13:07:24.125Z,94201.47
2023-04-14T13:09:52.163Z,94210.22
2023-04-14T13:12:18.890Z,94179.88
2023-04-14T13:14:45.760Z,94195.25
2023-04-14T13:17:12.805Z,94186.16
2023-04-14T13:19:39.522Z,94186.72
2023-04-14T13:22:06.283Z,94186.19
2023-04-14T13:24:32.963Z,94184.75
2023-04-14T13:26:59.674Z,94156.84
2023-04-14T13:29:26.617Z,94199.47
2023-04-14T13:31:53.244Z,94161.84
2023-04-14T13:34:20.039Z,94160.78
2023-04-14T13:36:46.878Z,94168.25
2023-04-14T13:39:14.070Z,94138.00
2023-04-14T13:41:40.732Z,94141.97
2023-04-14T13:44:07.310Z,94098.78
2023-04-14T13:46:40.522Z,94072.63
2023-04-14T13:49:07.853Z,94079.66
2023-04-14T13:51:34.578Z,94070.06
2023-04-14T13:54:01.591Z,94046.13
2023-04-14T13:56:28.305Z,94037.00
2023-04-14T13:58:55.593Z,94061.00
2023-04-14T14:01:22.590Z,94054.00
2023-04-14T14:03:51.326Z,94031.06
2023-04-14T14:06:19.172Z,93998.09
2023-04-14T14:08:46.254Z,94021.22
2023-04-14T14:11:14.145Z,94043.84
2023-04-14T14:13:41.093Z,94017.50
2023-04-14T14:16:09.363Z,93999.81
2023-04-14T14:18:36.453Z,94014.19
2023-04-14T14:21:04.254Z,93989.38
2023-04-14T14:23:31.190Z,94015.97
2023-04-14T14:25:57.800Z,94006.72
2023-04-14T14:28:24.382Z,94021.69
2023-04-14T14:30:51.216Z,94037.34
2023-04-14T14:33:17.874Z,94040.09
2023-04-14T14:35:44.510Z,94037.13
2023-04-14T14:38:11.156Z,94030.66
2023-04-14T14:40:38.119Z,94048.06
2023-04-14T14:43:05.241Z,94054.53
2023-04-14T14:45:32.823Z,94054.03
2023-04-14T14:48:00.023Z,94073.69
2023-04-14T14:50:26.726Z,94080.63
2023-04-14T14:52:56.096Z,94080.13
2023-04-14T14:55:22.890Z,94073.16
2023-04-14T14:57:51.080Z,94055.00
2023-04-14T15:00:18.462Z,94071.91
2023-04-14T15:02:45.415Z,94056.94
2023-04-14T15:05:12.214Z,94066.56
2023-04-14T15:07:39.664Z,94037.34
2023-04-14T15:10:07.061Z,94056.31
2023-04-14T15:12:33.733Z,94078.28
2023-04-14T15:15:00.614Z,94056.00
2023-04-14T15:17:27.332Z,94044.13
2023-04-14T15:19:53.971Z,94047.66
2023-04-14T15:22:20.921Z,94040.47
2023-04-14T15:24:47.528Z,94040.03
2023-04-14T15:27:14.157Z,94033.94
2023-04-14T15:29:40.858Z,94045.19
2023-04-14T15:32:07.510Z,94048.69
2023-04-14T15:34:34.185Z,94063.56
2023-04-14T15:37:01.958Z,94061.41
2023-04-14T15:39:28.829Z,94067.28
2023-04-14T15:41:55.852Z,94061.94
2023-04-14T15:44:22.544Z,94066.97
2023-04-14T15:46:49.818Z,94067.72
2023-04-14T15:49:16.389Z,94074.50
2023-04-14T15:51:42.982Z,94072.09
2023-04-14T15:54:09.575Z,94068.94
2023-04-14T15:56:37.480Z,94088.44
2023-04-14T15:59:04.168Z,94102.06
2023-04-14T16:01:30.926Z,94091.34
2023-04-14T16:03:57.760Z,94083.75
2023-04-14T16:06:24.519Z,94087.91
2023-04-14T16:08:51.445Z,94101.19
2023-04-14T16:11:19.339Z,94088.47
2023-04-14T16:13:46.138Z,94081.28
2023-04-14T16:16:13.819Z,94056.03
2023-04-14T16:18:40.474Z,94074.19
2023-04-14T16:21:07.044Z,94073.94
2023-04-14T16:23:33.725Z,94066.19
2023-04-14T16:26:00.988Z,94057.50
2023-04-14T16:28:28.382Z,94071.91
2023-04-14T16:30:55.390Z,94061.97
2023-04-14T16:33:22.055Z,94071.91
2023-04-14T16:35:48.716Z,94070.44
2023-04-14T16:38:15.300Z,94066.69
2023-04-14T16:40:42.765Z,94067.72
2023-04-14T16:43:09.710Z,94084.63
2023-04-14T16:45:36.488Z,94065.47
2023-04-14T16:48:03.203Z,94074.41
2023-04-14T16:50:31.849Z,94076.66
2023-04-14T16:52:58.521Z,94074.19
2023-04-14T16:55:25.136Z,94085.84
2023-04-14T16:57:52.117Z,94072.16
2023-04-14T17:00:19.025Z,94073.88
2023-04-14T17:02:45.903Z,94077.34
2023-04-14T17:05:16.001Z,94069.63
2023-04-14T17:07:43.174Z,94074.75
2023-04-14T17:10:10.661Z,94068.06
2023-04-14T17:12:37.389Z,94080.22
2023-04-14T17:15:04.671Z,94074.44
2023-04-14T17:17:32.009Z,94066.44
2023-04-14T17:19:59.586Z,94083.09
2023-04-14T17:22:27.611Z,94078.81
2023-04-14T17:24:54.780Z,94081.56
2023-04-14T17:27:21.453Z,94097.91
2023-04-14T17:29:48.340Z,94095.94
2023-04-14T17:32:15.014Z,94091.44
2023-04-14T17:34:41.757Z,94107.31
2023-04-14T17:37:09.098Z,94111.50
2023-04-14T17:39:35.812Z,94106.56
2023-04-14T17:42:03.513Z,94105.06
2023-04-14T17:44:35.062Z,94113.69
2023-04-14T17:47:03.474Z,94117.91
2023-04-14T17:49:30.559Z,94120.88
2023-04-14T17:51:57.847Z,94115.44
2023-04-14T17:54:25.225Z,94128.88
2023-04-14T17:56:52.690Z,94121.19
2023-04-14T17:59:20.443Z,94111.69
2023-04-14T18:01:47.550Z,94131.34
2023-04-14T18:04:14.563Z,94126.16
2023-04-14T18:06:41.738Z,94137.03
2023-04-14T18:09:09.404Z,94140.50
2023-04-14T18:11:36.649Z,94138.69
2023-04-14T18:14:03.677Z,94154.56
2023-04-14T18:16:31.255Z,94151.13
2023-04-14T18:18:57.969Z,94151.34
2023-04-14T18:21:24.600Z,94147.78
2023-04-14T18:28:50.313Z,94154.56
2023-04-14T18:31:16.928Z,94153.34
2023-04-14T18:33:43.731Z,94142.53
2023-04-14T18:36:10.448Z,94145.59
2023-04-14T18:38:37.490Z,94144.13
2023-04-14T18:41:05.380Z,94145.03
2023-04-14T18:43:33.259Z,94147.81
2023-04-14T18:46:00.410Z,94147.34
2023-04-14T18:48:27.796Z,94128.41
2023-04-14T18:51:00.324Z,94141.47
2023-04-14T18:53:27.520Z,94134.09
2023-04-14T18:55:54.333Z,94140.81
2023-04-14T18:58:20.916Z,94137.56
2023-04-14T19:00:47.685Z,94142.22
2023-04-14T19:03:15.499Z,94131.25
2023-04-14T19:05:42.298Z,94139.19
2023-04-14T19:08:08.891Z,94117.59
2023-04-14T19:10:36.495Z,94139.06
2023-04-14T19:13:03.416Z,94124.16
2023-04-14T19:15:30.042Z,94124.88
2023-04-14T19:17:56.726Z,94137.53
2023-04-14T19:20:24.152Z,94140.31
2023-04-14T19:22:50.962Z,94132.66
2023-04-14T19:25:17.748Z,94139.41
2023-04-14T19:27:47.254Z,94131.63
2023-04-14T19:30:14.004Z,94111.41
2023-04-14T19:32:48.128Z,94140.28
2023-04-14T19:35:15.385Z,94143.53
2023-04-14T19:37:42.444Z,94134.03
2023-04-14T19:40:11.030Z,94144.03
2023-04-14T19:42:37.873Z,94128.59
2023-04-14T19:45:05.815Z,94132.06
2023-04-14T19:47:32.940Z,94113.69
2023-04-14T19:50:00.372Z,94144.72
2023-04-14T19:52:27.230Z,94141.44
2023-04-14T19:54:55.190Z,94137.47
2023-04-14T19:57:22.574Z,94138.88
2023-04-14T19:59:49.290Z,94135.53
2023-04-14T20:02:16.439Z,94148.66
2023-04-14T20:04:44.883Z,94154.09
2023-04-14T20:07:11.722Z,94138.72
2023-04-14T20:09:44.899Z,94141.78
2023-04-14T20:12:11.961Z,94150.09
2023-04-14T20:14:39.339Z,94149.25
2023-04-14T20:17:06.570Z,94158.69
2023-04-14T20:19:33.417Z,94157.63
2023-04-14T20:22:00.344Z,94167.09
2023-04-14T20:24:27.174Z,94176.75
2023-04-14T20:26:53.888Z,94165.97
2023-04-14T20:29:21.422Z,94174.22
2023-04-14T20:31:49.160Z,94169.56
2023-04-14T20:34:16.057Z,94178.44
2023-04-14T20:36:45.094Z,94191.28
2023-04-14T20:39:12.016Z,94182.34
2023-04-14T20:41:38.880Z,94185.59
2023-04-14T20:44:05.542Z,94181.84
2023-04-14T20:46:32.832Z,94183.97
2023-04-14T20:49:01.036Z,94174.41
2023-04-14T20:51:28.095Z,94189.53
2023-04-14T20:53:55.694Z,94195.41
2023-04-14T20:56:22.838Z,94182.88
2023-04-14T20:58:49.474Z,94192.19
2023-04-14T21:01:16.670Z,94193.03
2023-04-14T21:03:43.918Z,94188.94
2023-04-14T21:06:11.216Z,94193.25
2023-04-14T21:08:39.510Z,94192.47
2023-04-14T21:11:16.728Z,94190.41
2023-04-14T21:15:28.685Z,94178.06
2023-04-14T21:16:35.216Z,94186.97
2023-04-14T21:19:03.934Z,94191.38
2023-04-14T21:21:31.957Z,94197.81
2023-04-14T21:23:59.063Z,94202.44
2023-04-14T21:26:27.033Z,94179.66
2023-04-14T21:28:53.796Z,94204.78
2023-04-14T21:31:20.617Z,94207.47
2023-04-14T21:33:47.379Z,94192.41
2023-04-14T21:36:14.665Z,94205.78
2023-04-14T21:38:41.322Z,94193.41
2023-04-14T21:41:08.188Z,94198.50
2023-04-14T21:43:35.417Z,94186.97
2023-04-14T21:46:02.260Z,94198.66
2023-04-14T21:48:29.053Z,94204.19
2023-04-14T21:50:55.649Z,94202.78
2023-04-14T21:53:22.754Z,94199.25
2023-04-14T21:56:03.426Z,94198.50
2023-04-14T21:58:36.732Z,94196.88
2023-04-14T22:01:03.602Z,94203.09
2023-04-14T22:03:30.636Z,94203.66
2023-04-14T22:05:57.428Z,94206.63
2023-04-14T22:08:24.123Z,94206.38
2023-04-14T22:10:50.779Z,94197.56
2023-04-14T22:13:17.786Z,94195.59
2023-04-14T22:15:44.788Z,94188.94
2023-04-14T22:18:11.636Z,94184.63
2023-04-14T22:20:39.258Z,94207.31
2023-04-14T22:23:06.063Z,94199.88
2023-04-14T22:25:33.245Z,94206.75
2023-04-14T22:27:59.814Z,94208.31
2023-04-14T22:30:26.441Z,94203.72
2023-04-14T22:32:53.177Z,94198.56
2023-04-14T22:35:19.995Z,94191.75
2023-04-14T22:37:46.945Z,94193.72
2023-04-14T22:40:13.898Z,94183.69
2023-04-14T22:42:40.741Z,94196.03
2023-04-14T22:45:08.207Z,94210.78
2023-04-14T22:47:34.920Z,94223.00
2023-04-14T22:50:02.239Z,94195.16
2023-04-14T22:52:28.958Z,94198.63
2023-04-14T22:54:55.561Z,94189.16
2023-04-14T22:57:22.591Z,94192.03
2023-04-14T22:59:49.220Z,94195.19
2023-04-14T23:02:16.691Z,94224.69
2023-04-14T23:04:43.552Z,94240.00
2023-04-14T23:07:10.577Z,94237.00
2023-04-14T23:09:37.173Z,94234.59
2023-04-14T23:12:04.598Z,94237.59
2023-04-14T23:14:32.396Z,94195.75
2023-04-14T23:17:01.846Z,94217.69
2023-04-14T23:19:28.413Z,94211.66
2023-04-14T23:21:54.996Z,94211.38
2023-04-14T23:24:22.417Z,94217.81
2023-04-14T23:26:49.100Z,94208.50
2023-04-14T23:29:15.802Z,94202.03
2023-04-14T23:31:42.514Z,94183.09
2023-04-14T23:34:11.160Z,94200.09
2023-04-14T23:36:37.906Z,94208.66
2023-04-14T23:39:04.782Z,94205.94
2023-04-14T23:41:31.530Z,94217.81
2023-04-14T23:43:58.266Z,94232.41
2023-04-14T23:46:25.014Z,94206.50
2023-04-14T23:48:58.902Z,94212.66
2023-04-14T23:51:29.555Z,94215.56
2023-04-14T23:53:59.438Z,94209.88
2023-04-14T23:56:26.410Z,94231.81
2023-04-14T23:58:53.249Z,94238.41
